Pays
Station

 

Conditions  météo  pour  Martinsville  -  Etats-Unis    Etats-Unis

  
6 °C
    
 
 

METAR pour Martinsville :

KMTV 230610Z AUTO 32009G17KT 10SM CLR 06/M05 A3004 RMK AO2 T00561055

 

Voici le bulletin pour Martinsville - Etats-Unis.
 
Le bulletin a été fait il y a 21 minutes, à 06:10 UTC .
Le vent soufflait à la vitesse de 4.6 mètres par seconde avec des rafales jusqu'à 8.7 mètres par seconde de Nord-ouest (320°).
 
La température était de 6 °C, avec un point de rosée à -5 °C.
La pression atmosphérique était de 1017 hPa.
L'humidité relative était de 45.0%.
 
Le ciel était clair.
 
La visibilité globale était de 16.1 kilomètres.
 

 
 
 

Pays :   A   B   C   D   E   F   G   H   I   J   K   L   M   N   O   P   Q   R   S   T   U   V   W   Y   Z

 

Partenaires :  Info Météo avec Met'info
Météo Marine avec MeteoMarine.net
Infos Site  |  Infos Légales  |  Crédits  |  Confidentialité
Contactez-nous  |  Ajouter aux favoris
© 2013-2019 METAR - Tous droits réservés